sensor_id;sensor_type;location;lat;lon;timestamp;P1;durP1;ratioP1;P2;durP2;ratioP2
48847;SDS011;36611;51.638;5.784;2022-12-10T00:02:06;40.33;;;24.27;;
48847;SDS011;36611;51.638;5.784;2022-12-10T00:04:32;44.40;;;25.30;;
48847;SDS011;36611;51.638;5.784;2022-12-10T00:06:59;44.72;;;25.17;;
48847;SDS011;36611;51.638;5.784;2022-12-10T00:09:26;44.38;;;24.60;;
48847;SDS011;36611;51.638;5.784;2022-12-10T00:11:52;43.45;;;24.42;;
48847;SDS011;36611;51.638;5.784;2022-12-10T00:14:19;45.58;;;24.67;;
48847;SDS011;36611;51.638;5.784;2022-12-10T00:16:46;44.95;;;24.13;;
48847;SDS011;36611;51.638;5.784;2022-12-10T00:19:12;43.85;;;25.23;;
48847;SDS011;36611;51.638;5.784;2022-12-10T00:21:39;41.53;;;24.58;;
48847;SDS011;36611;51.638;5.784;2022-12-10T00:24:06;46.90;;;24.77;;
48847;SDS011;36611;51.638;5.784;2022-12-10T00:26:34;46.22;;;25.63;;
48847;SDS011;36611;51.638;5.784;2022-12-10T00:29:02;44.92;;;25.42;;
48847;SDS011;36611;51.638;5.784;2022-12-10T00:31:32;47.33;;;26.10;;
48847;SDS011;36611;51.638;5.784;2022-12-10T00:34:02;48.83;;;26.75;;
48847;SDS011;36611;51.638;5.784;2022-12-10T00:36:31;46.63;;;25.77;;
48847;SDS011;36611;51.638;5.784;2022-12-10T00:39:00;42.47;;;24.77;;
48847;SDS011;36611;51.638;5.784;2022-12-10T00:41:27;46.80;;;26.13;;
48847;SDS011;36611;51.638;5.784;2022-12-10T00:43:54;43.35;;;25.95;;
48847;SDS011;36611;51.638;5.784;2022-12-10T00:46:21;42.63;;;24.35;;
48847;SDS011;36611;51.638;5.784;2022-12-10T00:48:48;40.35;;;22.75;;
48847;SDS011;36611;51.638;5.784;2022-12-10T00:51:17;41.90;;;23.10;;
48847;SDS011;36611;51.638;5.784;2022-12-10T00:53:46;39.45;;;21.77;;
48847;SDS011;36611;51.638;5.784;2022-12-10T00:56:17;44.20;;;24.45;;
48847;SDS011;36611;51.638;5.784;2022-12-10T00:58:45;42.15;;;23.35;;
48847;SDS011;36611;51.638;5.784;2022-12-10T01:03:40;46.55;;;24.52;;
48847;SDS011;36611;51.638;5.784;2022-12-10T01:06:12;40.63;;;23.30;;
48847;SDS011;36611;51.638;5.784;2022-12-10T01:08:48;46.88;;;24.08;;
48847;SDS011;36611;51.638;5.784;2022-12-10T01:11:16;43.22;;;23.25;;
48847;SDS011;36611;51.638;5.784;2022-12-10T01:13:45;43.40;;;23.52;;
48847;SDS011;36611;51.638;5.784;2022-12-10T01:16:13;45.53;;;23.73;;
48847;SDS011;36611;51.638;5.784;2022-12-10T01:18:42;41.58;;;23.52;;
48847;SDS011;36611;51.638;5.784;2022-12-10T01:21:10;46.13;;;23.13;;
48847;SDS011;36611;51.638;5.784;2022-12-10T01:23:40;49.03;;;25.08;;
48847;SDS011;36611;51.638;5.784;2022-12-10T01:26:09;48.05;;;26.58;;
48847;SDS011;36611;51.638;5.784;2022-12-10T01:28:38;46.72;;;25.02;;
48847;SDS011;36611;51.638;5.784;2022-12-10T01:31:08;48.65;;;25.77;;
48847;SDS011;36611;51.638;5.784;2022-12-10T01:33:37;45.10;;;24.88;;
48847;SDS011;36611;51.638;5.784;2022-12-10T01:36:05;48.38;;;26.48;;
48847;SDS011;36611;51.638;5.784;2022-12-10T01:38:34;48.65;;;26.02;;
48847;SDS011;36611;51.638;5.784;2022-12-10T01:41:04;44.70;;;25.33;;
48847;SDS011;36611;51.638;5.784;2022-12-10T01:43:55;50.53;;;26.17;;
48847;SDS011;36611;51.638;5.784;2022-12-10T01:46:28;50.67;;;26.08;;
48847;SDS011;36611;51.638;5.784;2022-12-10T01:48:59;53.60;;;26.23;;
48847;SDS011;36611;51.638;5.784;2022-12-10T01:51:28;47.05;;;26.00;;
48847;SDS011;36611;51.638;5.784;2022-12-10T01:53:57;48.38;;;27.35;;
48847;SDS011;36611;51.638;5.784;2022-12-10T01:56:24;48.38;;;26.20;;
48847;SDS011;36611;51.638;5.784;2022-12-10T01:58:52;51.13;;;26.48;;
48847;SDS011;36611;51.638;5.784;2022-12-10T02:09:18;52.28;;;26.20;;
48847;SDS011;36611;51.638;5.784;2022-12-10T02:11:49;50.13;;;25.35;;
48847;SDS011;36611;51.638;5.784;2022-12-10T02:14:34;40.20;;;23.48;;
48847;SDS011;36611;51.638;5.784;2022-12-10T02:17:11;44.03;;;23.23;;
48847;SDS011;36611;51.638;5.784;2022-12-10T02:22:20;45.88;;;24.42;;
48847;SDS011;36611;51.638;5.784;2022-12-10T02:24:49;49.78;;;24.70;;
48847;SDS011;36611;51.638;5.784;2022-12-10T02:27:25;47.53;;;24.67;;
48847;SDS011;36611;51.638;5.784;2022-12-10T02:29:53;49.47;;;25.33;;
48847;SDS011;36611;51.638;5.784;2022-12-10T02:32:23;46.42;;;23.00;;
48847;SDS011;36611;51.638;5.784;2022-12-10T02:34:57;45.83;;;24.98;;
48847;SDS011;36611;51.638;5.784;2022-12-10T02:37:34;44.47;;;23.38;;
48847;SDS011;36611;51.638;5.784;2022-12-10T02:40:06;49.83;;;25.75;;
48847;SDS011;36611;51.638;5.784;2022-12-10T02:42:40;44.00;;;24.00;;
48847;SDS011;36611;51.638;5.784;2022-12-10T02:45:10;44.65;;;24.60;;
48847;SDS011;36611;51.638;5.784;2022-12-10T02:47:39;50.47;;;25.90;;
48847;SDS011;36611;51.638;5.784;2022-12-10T02:50:07;50.17;;;26.15;;
48847;SDS011;36611;51.638;5.784;2022-12-10T02:52:36;49.97;;;25.33;;
48847;SDS011;36611;51.638;5.784;2022-12-10T02:55:02;46.72;;;24.80;;
48847;SDS011;36611;51.638;5.784;2022-12-10T03:00:21;50.72;;;26.35;;
48847;SDS011;36611;51.638;5.784;2022-12-10T03:08:52;50.85;;;25.75;;
48847;SDS011;36611;51.638;5.784;2022-12-10T03:11:25;54.97;;;26.70;;
48847;SDS011;36611;51.638;5.784;2022-12-10T03:16:57;48.22;;;24.77;;
48847;SDS011;36611;51.638;5.784;2022-12-10T03:19:36;48.78;;;25.38;;
48847;SDS011;36611;51.638;5.784;2022-12-10T03:22:06;49.63;;;26.27;;
48847;SDS011;36611;51.638;5.784;2022-12-10T03:24:35;50.00;;;26.95;;
48847;SDS011;36611;51.638;5.784;2022-12-10T03:27:03;48.85;;;25.38;;
48847;SDS011;36611;51.638;5.784;2022-12-10T03:30:06;52.90;;;26.05;;
48847;SDS011;36611;51.638;5.784;2022-12-10T03:32:26;51.60;;;25.35;;
48847;SDS011;36611;51.638;5.784;2022-12-10T03:34:55;47.53;;;25.25;;
48847;SDS011;36611;51.638;5.784;2022-12-10T03:37:24;56.97;;;27.52;;
48847;SDS011;36611;51.638;5.784;2022-12-10T03:39:53;56.08;;;27.38;;
48847;SDS011;36611;51.638;5.784;2022-12-10T03:42:20;55.58;;;28.00;;
48847;SDS011;36611;51.638;5.784;2022-12-10T03:44:48;49.63;;;25.98;;
48847;SDS011;36611;51.638;5.784;2022-12-10T03:47:16;54.42;;;26.95;;
48847;SDS011;36611;51.638;5.784;2022-12-10T03:49:43;50.15;;;27.13;;
48847;SDS011;36611;51.638;5.784;2022-12-10T03:52:10;51.60;;;27.48;;
48847;SDS011;36611;51.638;5.784;2022-12-10T03:54:37;47.53;;;25.77;;
48847;SDS011;36611;51.638;5.784;2022-12-10T03:57:04;51.22;;;25.83;;
48847;SDS011;36611;51.638;5.784;2022-12-10T03:59:30;54.55;;;26.10;;
48847;SDS011;36611;51.638;5.784;2022-12-10T04:01:57;49.33;;;25.88;;
48847;SDS011;36611;51.638;5.784;2022-12-10T04:04:24;49.38;;;27.13;;
48847;SDS011;36611;51.638;5.784;2022-12-10T04:06:51;55.90;;;27.95;;
48847;SDS011;36611;51.638;5.784;2022-12-10T04:09:17;56.88;;;29.08;;
48847;SDS011;36611;51.638;5.784;2022-12-10T04:11:44;58.08;;;28.40;;
48847;SDS011;36611;51.638;5.784;2022-12-10T04:14:11;66.10;;;32.20;;
48847;SDS011;36611;51.638;5.784;2022-12-10T04:16:57;67.20;;;32.33;;
48847;SDS011;36611;51.638;5.784;2022-12-10T04:19:24;73.78;;;34.33;;
48847;SDS011;36611;51.638;5.784;2022-12-10T04:21:51;70.57;;;33.45;;
48847;SDS011;36611;51.638;5.784;2022-12-10T04:24:37;71.20;;;33.95;;
48847;SDS011;36611;51.638;5.784;2022-12-10T04:27:23;74.47;;;35.03;;
48847;SDS011;36611;51.638;5.784;2022-12-10T04:29:50;77.45;;;36.70;;
48847;SDS011;36611;51.638;5.784;2022-12-10T04:32:18;73.95;;;34.97;;
48847;SDS011;36611;51.638;5.784;2022-12-10T04:34:45;72.70;;;34.65;;
48847;SDS011;36611;51.638;5.784;2022-12-10T04:37:12;80.28;;;35.90;;
48847;SDS011;36611;51.638;5.784;2022-12-10T04:39:39;73.55;;;35.25;;
48847;SDS011;36611;51.638;5.784;2022-12-10T04:42:06;81.85;;;36.65;;
48847;SDS011;36611;51.638;5.784;2022-12-10T04:44:34;75.75;;;33.95;;
48847;SDS011;36611;51.638;5.784;2022-12-10T04:47:02;125.38;;;34.03;;
48847;SDS011;36611;51.638;5.784;2022-12-10T04:49:30;68.55;;;30.42;;
48847;SDS011;36611;51.638;5.784;2022-12-10T04:51:57;67.68;;;31.75;;
48847;SDS011;36611;51.638;5.784;2022-12-10T04:54:24;66.05;;;33.17;;
48847;SDS011;36611;51.638;5.784;2022-12-10T04:56:52;68.97;;;32.50;;
48847;SDS011;36611;51.638;5.784;2022-12-10T04:59:19;94.82;;;35.03;;
48847;SDS011;36611;51.638;5.784;2022-12-10T05:01:45;80.22;;;34.58;;
48847;SDS011;36611;51.638;5.784;2022-12-10T05:04:13;104.30;;;35.50;;
48847;SDS011;36611;51.638;5.784;2022-12-10T05:06:42;74.05;;;35.25;;
48847;SDS011;36611;51.638;5.784;2022-12-10T05:09:09;74.82;;;35.63;;
48847;SDS011;36611;51.638;5.784;2022-12-10T05:11:37;68.78;;;34.38;;
48847;SDS011;36611;51.638;5.784;2022-12-10T05:14:04;77.50;;;35.03;;
48847;SDS011;36611;51.638;5.784;2022-12-10T05:16:31;70.57;;;34.45;;
48847;SDS011;36611;51.638;5.784;2022-12-10T05:18:59;74.38;;;35.55;;
48847;SDS011;36611;51.638;5.784;2022-12-10T05:21:27;106.70;;;36.70;;
48847;SDS011;36611;51.638;5.784;2022-12-10T05:24:15;120.03;;;35.45;;
48847;SDS011;36611;51.638;5.784;2022-12-10T05:26:43;74.00;;;33.55;;
48847;SDS011;36611;51.638;5.784;2022-12-10T05:29:10;73.88;;;34.35;;
48847;SDS011;36611;51.638;5.784;2022-12-10T05:31:38;82.03;;;38.03;;
48847;SDS011;36611;51.638;5.784;2022-12-10T05:34:05;81.90;;;36.92;;
48847;SDS011;36611;51.638;5.784;2022-12-10T05:36:34;81.65;;;35.35;;
48847;SDS011;36611;51.638;5.784;2022-12-10T05:39:01;184.68;;;43.67;;
48847;SDS011;36611;51.638;5.784;2022-12-10T05:41:28;80.40;;;36.05;;
48847;SDS011;36611;51.638;5.784;2022-12-10T05:43:57;76.57;;;34.90;;
48847;SDS011;36611;51.638;5.784;2022-12-10T05:46:28;78.80;;;36.13;;
48847;SDS011;36611;51.638;5.784;2022-12-10T05:48:57;74.35;;;35.40;;
48847;SDS011;36611;51.638;5.784;2022-12-10T05:51:25;74.85;;;35.88;;
48847;SDS011;36611;51.638;5.784;2022-12-10T05:53:54;72.82;;;35.67;;
48847;SDS011;36611;51.638;5.784;2022-12-10T05:56:22;80.75;;;38.08;;
48847;SDS011;36611;51.638;5.784;2022-12-10T05:58:51;91.65;;;37.55;;
48847;SDS011;36611;51.638;5.784;2022-12-10T06:01:23;102.07;;;37.15;;
48847;SDS011;36611;51.638;5.784;2022-12-10T06:03:51;85.50;;;37.58;;
48847;SDS011;36611;51.638;5.784;2022-12-10T06:06:22;78.53;;;37.55;;
48847;SDS011;36611;51.638;5.784;2022-12-10T06:08:51;78.43;;;35.70;;
48847;SDS011;36611;51.638;5.784;2022-12-10T06:11:18;77.47;;;35.20;;
48847;SDS011;36611;51.638;5.784;2022-12-10T06:13:45;96.60;;;35.42;;
48847;SDS011;36611;51.638;5.784;2022-12-10T06:16:18;88.70;;;37.78;;
48847;SDS011;36611;51.638;5.784;2022-12-10T06:18:45;79.45;;;36.08;;
48847;SDS011;36611;51.638;5.784;2022-12-10T06:21:13;85.50;;;37.35;;
48847;SDS011;36611;51.638;5.784;2022-12-10T06:23:41;77.65;;;35.80;;
48847;SDS011;36611;51.638;5.784;2022-12-10T06:26:12;83.90;;;37.92;;
48847;SDS011;36611;51.638;5.784;2022-12-10T06:28:43;81.80;;;35.33;;
48847;SDS011;36611;51.638;5.784;2022-12-10T06:31:11;81.78;;;36.85;;
48847;SDS011;36611;51.638;5.784;2022-12-10T06:33:39;80.43;;;36.97;;
48847;SDS011;36611;51.638;5.784;2022-12-10T06:36:07;96.65;;;40.92;;
48847;SDS011;36611;51.638;5.784;2022-12-10T06:38:35;86.43;;;39.40;;
48847;SDS011;36611;51.638;5.784;2022-12-10T06:41:06;87.63;;;37.92;;
48847;SDS011;36611;51.638;5.784;2022-12-10T06:43:34;84.90;;;39.92;;
48847;SDS011;36611;51.638;5.784;2022-12-10T06:46:08;88.85;;;40.20;;
48847;SDS011;36611;51.638;5.784;2022-12-10T06:48:36;94.45;;;39.63;;
48847;SDS011;36611;51.638;5.784;2022-12-10T06:51:04;89.28;;;39.65;;
48847;SDS011;36611;51.638;5.784;2022-12-10T06:53:32;101.95;;;39.53;;
48847;SDS011;36611;51.638;5.784;2022-12-10T06:56:01;101.90;;;39.75;;
48847;SDS011;36611;51.638;5.784;2022-12-10T06:58:29;93.93;;;39.13;;
48847;SDS011;36611;51.638;5.784;2022-12-10T07:01:03;83.93;;;37.65;;
48847;SDS011;36611;51.638;5.784;2022-12-10T07:03:34;87.68;;;35.90;;
48847;SDS011;36611;51.638;5.784;2022-12-10T07:06:01;83.07;;;36.88;;
48847;SDS011;36611;51.638;5.784;2022-12-10T07:08:29;92.65;;;37.55;;
48847;SDS011;36611;51.638;5.784;2022-12-10T07:10:56;83.75;;;35.05;;
48847;SDS011;36611;51.638;5.784;2022-12-10T07:13:23;77.45;;;36.38;;
48847;SDS011;36611;51.638;5.784;2022-12-10T07:15:56;86.50;;;35.63;;
48847;SDS011;36611;51.638;5.784;2022-12-10T07:18:23;83.57;;;35.30;;
48847;SDS011;36611;51.638;5.784;2022-12-10T07:20:50;82.28;;;35.70;;
48847;SDS011;36611;51.638;5.784;2022-12-10T07:23:17;81.43;;;36.05;;
48847;SDS011;36611;51.638;5.784;2022-12-10T07:25:43;85.43;;;37.53;;
48847;SDS011;36611;51.638;5.784;2022-12-10T07:28:10;80.05;;;35.00;;
48847;SDS011;36611;51.638;5.784;2022-12-10T07:30:36;77.60;;;35.85;;
48847;SDS011;36611;51.638;5.784;2022-12-10T07:33:03;77.65;;;34.80;;
48847;SDS011;36611;51.638;5.784;2022-12-10T07:35:30;78.57;;;33.22;;
48847;SDS011;36611;51.638;5.784;2022-12-10T07:37:57;86.13;;;36.85;;
48847;SDS011;36611;51.638;5.784;2022-12-10T07:40:23;85.90;;;35.60;;
48847;SDS011;36611;51.638;5.784;2022-12-10T07:42:50;82.72;;;36.15;;
48847;SDS011;36611;51.638;5.784;2022-12-10T07:45:16;88.32;;;37.33;;
48847;SDS011;36611;51.638;5.784;2022-12-10T07:47:43;73.45;;;33.72;;
48847;SDS011;36611;51.638;5.784;2022-12-10T07:50:10;83.15;;;36.70;;
48847;SDS011;36611;51.638;5.784;2022-12-10T07:52:37;81.93;;;34.78;;
48847;SDS011;36611;51.638;5.784;2022-12-10T07:55:03;81.30;;;34.45;;
48847;SDS011;36611;51.638;5.784;2022-12-10T07:57:30;78.72;;;36.30;;
48847;SDS011;36611;51.638;5.784;2022-12-10T07:59:57;86.60;;;38.03;;
48847;SDS011;36611;51.638;5.784;2022-12-10T08:02:24;77.55;;;34.17;;
48847;SDS011;36611;51.638;5.784;2022-12-10T08:04:51;86.38;;;34.85;;
48847;SDS011;36611;51.638;5.784;2022-12-10T08:07:17;79.13;;;34.17;;
48847;SDS011;36611;51.638;5.784;2022-12-10T08:09:44;90.80;;;37.97;;
48847;SDS011;36611;51.638;5.784;2022-12-10T08:12:10;80.82;;;34.40;;
48847;SDS011;36611;51.638;5.784;2022-12-10T08:14:37;82.68;;;35.88;;
48847;SDS011;36611;51.638;5.784;2022-12-10T08:17:04;74.50;;;33.70;;
48847;SDS011;36611;51.638;5.784;2022-12-10T08:19:31;85.75;;;36.55;;
48847;SDS011;36611;51.638;5.784;2022-12-10T08:21:57;79.95;;;33.83;;
48847;SDS011;36611;51.638;5.784;2022-12-10T08:24:24;83.18;;;35.72;;
48847;SDS011;36611;51.638;5.784;2022-12-10T08:26:50;84.03;;;35.13;;
48847;SDS011;36611;51.638;5.784;2022-12-10T08:29:17;82.55;;;33.80;;
48847;SDS011;36611;51.638;5.784;2022-12-10T08:31:43;75.18;;;33.22;;
48847;SDS011;36611;51.638;5.784;2022-12-10T08:34:11;78.18;;;33.38;;
48847;SDS011;36611;51.638;5.784;2022-12-10T08:36:46;76.72;;;33.53;;
48847;SDS011;36611;51.638;5.784;2022-12-10T08:39:13;78.97;;;32.47;;
48847;SDS011;36611;51.638;5.784;2022-12-10T08:41:43;78.25;;;32.70;;
48847;SDS011;36611;51.638;5.784;2022-12-10T08:44:12;84.45;;;34.95;;
48847;SDS011;36611;51.638;5.784;2022-12-10T08:46:39;82.32;;;34.63;;
48847;SDS011;36611;51.638;5.784;2022-12-10T08:49:06;82.70;;;37.65;;
48847;SDS011;36611;51.638;5.784;2022-12-10T08:51:35;82.30;;;35.22;;
48847;SDS011;36611;51.638;5.784;2022-12-10T08:54:02;89.68;;;35.35;;
48847;SDS011;36611;51.638;5.784;2022-12-10T08:56:29;83.47;;;34.40;;
48847;SDS011;36611;51.638;5.784;2022-12-10T08:58:56;81.53;;;33.53;;
48847;SDS011;36611;51.638;5.784;2022-12-10T09:01:22;82.15;;;34.33;;
48847;SDS011;36611;51.638;5.784;2022-12-10T09:03:49;78.45;;;33.85;;
48847;SDS011;36611;51.638;5.784;2022-12-10T09:06:18;82.95;;;35.08;;
48847;SDS011;36611;51.638;5.784;2022-12-10T09:08:46;83.80;;;36.78;;
48847;SDS011;36611;51.638;5.784;2022-12-10T09:11:15;74.97;;;34.35;;
48847;SDS011;36611;51.638;5.784;2022-12-10T09:13:43;83.97;;;33.90;;
48847;SDS011;36611;51.638;5.784;2022-12-10T09:16:10;88.07;;;34.95;;
48847;SDS011;36611;51.638;5.784;2022-12-10T09:18:37;87.47;;;33.50;;
48847;SDS011;36611;51.638;5.784;2022-12-10T09:21:08;70.10;;;32.47;;
48847;SDS011;36611;51.638;5.784;2022-12-10T09:23:38;77.25;;;32.58;;
48847;SDS011;36611;51.638;5.784;2022-12-10T09:26:06;81.90;;;33.22;;
48847;SDS011;36611;51.638;5.784;2022-12-10T09:28:37;78.63;;;32.00;;
48847;SDS011;36611;51.638;5.784;2022-12-10T09:31:05;67.30;;;31.23;;
48847;SDS011;36611;51.638;5.784;2022-12-10T09:33:42;68.22;;;32.28;;
48847;SDS011;36611;51.638;5.784;2022-12-10T09:36:10;72.55;;;32.00;;
48847;SDS011;36611;51.638;5.784;2022-12-10T09:38:38;69.13;;;32.03;;
48847;SDS011;36611;51.638;5.784;2022-12-10T09:51:40;69.40;;;30.80;;
48847;SDS011;36611;51.638;5.784;2022-12-10T09:54:29;67.90;;;29.92;;
48847;SDS011;36611;51.638;5.784;2022-12-10T09:56:57;65.07;;;29.45;;
48847;SDS011;36611;51.638;5.784;2022-12-10T09:59:28;63.38;;;28.95;;
48847;SDS011;36611;51.638;5.784;2022-12-10T10:02:00;147.73;;;38.65;;
48847;SDS011;36611;51.638;5.784;2022-12-10T10:04:45;67.47;;;30.42;;
48847;SDS011;36611;51.638;5.784;2022-12-10T10:07:31;64.75;;;28.30;;
48847;SDS011;36611;51.638;5.784;2022-12-10T10:10:05;65.22;;;30.45;;
48847;SDS011;36611;51.638;5.784;2022-12-10T10:12:34;77.20;;;32.03;;
48847;SDS011;36611;51.638;5.784;2022-12-10T10:15:12;69.55;;;33.17;;
48847;SDS011;36611;51.638;5.784;2022-12-10T10:17:41;79.57;;;32.83;;
48847;SDS011;36611;51.638;5.784;2022-12-10T10:20:12;78.18;;;33.38;;
48847;SDS011;36611;51.638;5.784;2022-12-10T10:22:41;80.43;;;34.58;;
48847;SDS011;36611;51.638;5.784;2022-12-10T10:25:12;75.93;;;32.70;;
48847;SDS011;36611;51.638;5.784;2022-12-10T10:27:41;75.53;;;33.58;;
48847;SDS011;36611;51.638;5.784;2022-12-10T10:30:13;77.18;;;30.85;;
48847;SDS011;36611;51.638;5.784;2022-12-10T10:35:19;84.93;;;33.53;;
48847;SDS011;36611;51.638;5.784;2022-12-10T10:37:59;67.47;;;30.90;;
48847;SDS011;36611;51.638;5.784;2022-12-10T10:40:30;73.35;;;31.85;;
48847;SDS011;36611;51.638;5.784;2022-12-10T10:42:59;67.45;;;31.65;;
48847;SDS011;36611;51.638;5.784;2022-12-10T10:48:03;70.15;;;31.38;;
48847;SDS011;36611;51.638;5.784;2022-12-10T10:50:35;66.70;;;29.77;;
48847;SDS011;36611;51.638;5.784;2022-12-10T10:55:56;62.35;;;29.05;;
48847;SDS011;36611;51.638;5.784;2022-12-10T10:58:27;65.78;;;30.50;;
48847;SDS011;36611;51.638;5.784;2022-12-10T11:00:58;69.25;;;30.42;;
48847;SDS011;36611;51.638;5.784;2022-12-10T11:03:28;71.00;;;30.88;;
48847;SDS011;36611;51.638;5.784;2022-12-10T11:05:56;62.60;;;27.35;;
48847;SDS011;36611;51.638;5.784;2022-12-10T11:08:25;69.82;;;30.05;;
48847;SDS011;36611;51.638;5.784;2022-12-10T11:10:58;76.70;;;30.33;;
48847;SDS011;36611;51.638;5.784;2022-12-10T11:13:30;72.10;;;30.83;;
48847;SDS011;36611;51.638;5.784;2022-12-10T11:18:29;74.32;;;32.03;;
48847;SDS011;36611;51.638;5.784;2022-12-10T11:23:39;64.35;;;28.38;;
48847;SDS011;36611;51.638;5.784;2022-12-10T11:28:43;87.50;;;26.42;;
48847;SDS011;36611;51.638;5.784;2022-12-10T11:36:59;62.40;;;26.60;;
48847;SDS011;36611;51.638;5.784;2022-12-10T11:45:02;66.05;;;27.60;;
48847;SDS011;36611;51.638;5.784;2022-12-10T11:50:46;60.00;;;25.60;;
48847;SDS011;36611;51.638;5.784;2022-12-10T11:56:23;66.75;;;26.88;;
48847;SDS011;36611;51.638;5.784;2022-12-10T12:04:20;60.05;;;24.80;;
48847;SDS011;36611;51.638;5.784;2022-12-10T12:06:52;61.83;;;26.42;;
48847;SDS011;36611;51.638;5.784;2022-12-10T12:12:02;60.85;;;25.92;;
48847;SDS011;36611;51.638;5.784;2022-12-10T12:14:59;64.38;;;25.42;;
48847;SDS011;36611;51.638;5.784;2022-12-10T12:17:34;57.50;;;23.55;;
48847;SDS011;36611;51.638;5.784;2022-12-10T12:23:10;53.78;;;25.45;;
48847;SDS011;36611;51.638;5.784;2022-12-10T12:25:45;57.90;;;25.15;;
48847;SDS011;36611;51.638;5.784;2022-12-10T12:28:16;64.70;;;27.15;;
48847;SDS011;36611;51.638;5.784;2022-12-10T12:30:53;63.22;;;25.85;;
48847;SDS011;36611;51.638;5.784;2022-12-10T12:33:38;65.95;;;27.77;;
48847;SDS011;36611;51.638;5.784;2022-12-10T12:39:01;62.00;;;25.75;;
48847;SDS011;36611;51.638;5.784;2022-12-10T12:41:34;61.13;;;25.73;;
48847;SDS011;36611;51.638;5.784;2022-12-10T12:50:20;56.03;;;23.67;;
48847;SDS011;36611;51.638;5.784;2022-12-10T12:52:56;56.60;;;24.17;;
48847;SDS011;36611;51.638;5.784;2022-12-10T12:55:33;53.65;;;25.00;;
48847;SDS011;36611;51.638;5.784;2022-12-10T12:58:26;57.10;;;24.45;;
48847;SDS011;36611;51.638;5.784;2022-12-10T13:00:57;53.38;;;22.77;;
48847;SDS011;36611;51.638;5.784;2022-12-10T13:03:41;56.08;;;23.42;;
48847;SDS011;36611;51.638;5.784;2022-12-10T13:06:13;51.00;;;25.13;;
48847;SDS011;36611;51.638;5.784;2022-12-10T13:08:46;61.15;;;26.77;;
48847;SDS011;36611;51.638;5.784;2022-12-10T13:11:17;69.40;;;29.30;;
48847;SDS011;36611;51.638;5.784;2022-12-10T13:19:34;58.80;;;25.95;;
48847;SDS011;36611;51.638;5.784;2022-12-10T13:29:57;60.83;;;25.90;;
48847;SDS011;36611;51.638;5.784;2022-12-10T13:49:03;58.00;;;25.17;;
48847;SDS011;36611;51.638;5.784;2022-12-10T14:00:22;63.70;;;28.33;;
48847;SDS011;36611;51.638;5.784;2022-12-10T14:06:04;69.47;;;28.60;;
48847;SDS011;36611;51.638;5.784;2022-12-10T14:08:35;69.85;;;29.88;;
48847;SDS011;36611;51.638;5.784;2022-12-10T14:11:05;94.28;;;33.47;;
48847;SDS011;36611;51.638;5.784;2022-12-10T14:13:44;73.60;;;30.77;;
48847;SDS011;36611;51.638;5.784;2022-12-10T14:16:16;72.63;;;31.52;;
48847;SDS011;36611;51.638;5.784;2022-12-10T14:18:51;72.40;;;31.73;;
48847;SDS011;36611;51.638;5.784;2022-12-10T14:21:21;76.28;;;30.13;;
48847;SDS011;36611;51.638;5.784;2022-12-10T14:23:51;77.32;;;32.47;;
48847;SDS011;36611;51.638;5.784;2022-12-10T14:26:26;77.03;;;32.08;;
48847;SDS011;36611;51.638;5.784;2022-12-10T14:31:30;70.32;;;29.83;;
48847;SDS011;36611;51.638;5.784;2022-12-10T14:34:08;71.80;;;31.73;;
48847;SDS011;36611;51.638;5.784;2022-12-10T14:36:44;66.88;;;31.27;;
48847;SDS011;36611;51.638;5.784;2022-12-10T14:39:17;69.82;;;30.40;;
48847;SDS011;36611;51.638;5.784;2022-12-10T14:41:50;68.47;;;30.77;;
48847;SDS011;36611;51.638;5.784;2022-12-10T14:44:19;66.18;;;29.42;;
48847;SDS011;36611;51.638;5.784;2022-12-10T14:46:46;72.85;;;31.95;;
48847;SDS011;36611;51.638;5.784;2022-12-10T14:49:21;72.85;;;31.40;;
48847;SDS011;36611;51.638;5.784;2022-12-10T14:51:51;74.28;;;30.42;;
48847;SDS011;36611;51.638;5.784;2022-12-10T14:54:28;79.50;;;31.58;;
48847;SDS011;36611;51.638;5.784;2022-12-10T14:56:58;85.45;;;31.63;;
48847;SDS011;36611;51.638;5.784;2022-12-10T14:59:29;76.35;;;31.63;;
48847;SDS011;36611;51.638;5.784;2022-12-10T15:02:13;73.78;;;32.17;;
48847;SDS011;36611;51.638;5.784;2022-12-10T15:04:45;75.75;;;33.15;;
48847;SDS011;36611;51.638;5.784;2022-12-10T15:07:14;80.82;;;33.35;;
48847;SDS011;36611;51.638;5.784;2022-12-10T15:09:46;81.35;;;33.63;;
48847;SDS011;36611;51.638;5.784;2022-12-10T15:12:37;70.15;;;31.73;;
48847;SDS011;36611;51.638;5.784;2022-12-10T15:15:23;69.85;;;30.90;;
48847;SDS011;36611;51.638;5.784;2022-12-10T15:23:33;85.63;;;35.63;;
48847;SDS011;36611;51.638;5.784;2022-12-10T15:26:14;90.13;;;33.75;;
48847;SDS011;36611;51.638;5.784;2022-12-10T15:28:45;88.93;;;36.90;;
48847;SDS011;36611;51.638;5.784;2022-12-10T15:33:59;89.72;;;36.63;;
48847;SDS011;36611;51.638;5.784;2022-12-10T15:36:41;81.85;;;36.00;;
48847;SDS011;36611;51.638;5.784;2022-12-10T15:41:44;84.85;;;36.80;;
48847;SDS011;36611;51.638;5.784;2022-12-10T15:49:43;88.18;;;34.85;;
48847;SDS011;36611;51.638;5.784;2022-12-10T15:52:32;86.20;;;35.78;;
48847;SDS011;36611;51.638;5.784;2022-12-10T15:54:58;86.32;;;35.65;;
48847;SDS011;36611;51.638;5.784;2022-12-10T15:57:35;85.93;;;36.67;;
48847;SDS011;36611;51.638;5.784;2022-12-10T16:00:15;82.85;;;36.95;;
48847;SDS011;36611;51.638;5.784;2022-12-10T16:02:57;92.35;;;37.38;;
48847;SDS011;36611;51.638;5.784;2022-12-10T16:05:37;81.70;;;33.28;;
48847;SDS011;36611;51.638;5.784;2022-12-10T16:10:39;80.32;;;36.80;;
48847;SDS011;36611;51.638;5.784;2022-12-10T16:13:06;88.18;;;38.03;;
48847;SDS011;36611;51.638;5.784;2022-12-10T16:15:40;83.75;;;36.13;;
48847;SDS011;36611;51.638;5.784;2022-12-10T16:18:11;88.40;;;36.03;;
48847;SDS011;36611;51.638;5.784;2022-12-10T16:20:38;88.13;;;35.92;;
48847;SDS011;36611;51.638;5.784;2022-12-10T16:23:05;81.50;;;35.63;;
48847;SDS011;36611;51.638;5.784;2022-12-10T16:25:32;89.72;;;36.53;;
48847;SDS011;36611;51.638;5.784;2022-12-10T16:28:00;73.80;;;32.60;;
48847;SDS011;36611;51.638;5.784;2022-12-10T16:33:12;74.28;;;33.83;;
48847;SDS011;36611;51.638;5.784;2022-12-10T16:35:39;76.75;;;33.63;;
48847;SDS011;36611;51.638;5.784;2022-12-10T16:38:05;90.50;;;36.38;;
48847;SDS011;36611;51.638;5.784;2022-12-10T16:40:37;78.57;;;35.15;;
48847;SDS011;36611;51.638;5.784;2022-12-10T16:43:05;87.40;;;36.63;;
48847;SDS011;36611;51.638;5.784;2022-12-10T16:45:36;75.95;;;34.92;;
48847;SDS011;36611;51.638;5.784;2022-12-10T16:48:04;80.82;;;35.50;;
48847;SDS011;36611;51.638;5.784;2022-12-10T16:50:32;91.47;;;36.08;;
48847;SDS011;36611;51.638;5.784;2022-12-10T16:53:00;85.53;;;36.45;;
48847;SDS011;36611;51.638;5.784;2022-12-10T16:55:30;83.15;;;36.03;;
48847;SDS011;36611;51.638;5.784;2022-12-10T16:57:56;81.57;;;35.45;;
48847;SDS011;36611;51.638;5.784;2022-12-10T17:00:24;95.03;;;35.08;;
48847;SDS011;36611;51.638;5.784;2022-12-10T17:02:51;73.80;;;32.72;;
48847;SDS011;36611;51.638;5.784;2022-12-10T17:07:53;82.00;;;35.58;;
48847;SDS011;36611;51.638;5.784;2022-12-10T17:10:20;80.93;;;36.08;;
48847;SDS011;36611;51.638;5.784;2022-12-10T17:13:08;70.75;;;31.27;;
48847;SDS011;36611;51.638;5.784;2022-12-10T17:15:37;67.22;;;30.00;;
48847;SDS011;36611;51.638;5.784;2022-12-10T17:18:04;59.88;;;28.05;;